Caliente, Nevada Weather observations

Data are for observation ending at time listed.
 Day   Time    Ave.   Ave.  Ave.  Vector   Max.   Stn.    Total    Solar   Ave.  
  of    of     Air    Rel.  Wind   Wind    Wind   Baro.  Precip.   Rad.    Soil  
Year   Day     Temp.  Hum.  Speed  Dir.    Gust   Pres.                    Temp. 
2015   (PST)    F      %     mph   deg.    mph     mb.     in.     W/m2     F   
------------------------------------------------------------------------------
 116    0:00   37.3    91    1.3    47      3.4   860.5    0.00       0    51.2
 116    0:10   37.0    91    1.1    52      3.1   860.5    0.00       0    51.1
 116    0:20   36.9    91    0.8    98      2.1   860.5    0.00       0    51.0
 116    0:30   36.6    91    1.0    32      2.2   860.4    0.00       0    51.0
 116    0:40   36.2    91    1.3    61      3.0   860.4    0.00       0    50.8
 116    0:50   36.1    91    1.0    70      3.0   860.6    0.00       0    50.7
 116    1:00   35.8    92    1.1   109      2.6   860.7    0.00       0    50.6
 116    1:10   36.1    92    1.7    24      3.9   860.7    0.00       0    50.5
 116    1:20   36.1    92    0.3   124      2.0   860.8    0.00       0    50.4
 116    1:30   36.2    92    2.0    33      4.4   860.9    0.00       0    50.3
 116    1:40   36.1    92    1.2    86      3.0   860.9    0.00       0    50.3
 116    1:50   36.4    92    1.1    39      2.5   860.9    0.00       0    50.2
 116    2:00   36.7    92    1.4   234      3.4   861.0    0.00       0    50.2
 116    2:10   39.1    85    4.9   255      9.7   861.0    0.00       0    50.1
 116    2:20   40.6    76    6.5   254     11.5   861.1    0.00       0    50.1
 116    2:30   40.5    75    4.6   243      9.9   861.1    0.00       0    50.0
 116    2:40   39.9    77    2.9   245      6.1   861.1    0.00       0    49.9
 116    2:50   39.8    76    2.9   246      5.6   861.2    0.00       0    49.8
 116    3:00   39.2    77    3.5   247      6.0   861.2    0.00       0    49.8
 116    3:10   39.4    76    3.2   242      6.1   861.2    0.00       0    49.7
 116    3:20   39.2    76    2.3   238      5.5   861.3    0.00       0    49.6
 116    3:30   37.2    82    1.1    31      3.3   861.5    0.00       0    49.5
 116    3:40   36.2    86    1.4    70      3.2   861.5    0.00       0    49.4
 116    3:50   35.4    88    0.9   129      3.5   861.6    0.00       0    49.3
 116    4:00   35.6    88    0.4   256      1.7   861.7    0.00       0    49.2
 116    4:10   35.3    88    0.9    51      2.9   861.9    0.00       0    49.1
 116    4:20   34.7    89    1.8    83      3.7   862.1    0.00       0    49.0
 116    4:30   34.7    90    0.9    61      2.5   862.2    0.00       0    49.0
 116    4:40   34.7    90    1.2   324      3.1   862.3    0.00       1    48.9
 116    4:50   35.0    89    0.6   312      2.7   862.4    0.00       3    48.8
 116    5:00   34.7    89    1.5    20      3.4   862.6    0.00       4    48.7
 116    5:10   34.8    88    0.5   119      2.0   862.8    0.00       9    48.6
 116    5:20   34.9    89    1.5   352      7.3   862.9    0.00      12    48.5
 116    5:30   38.5    73    5.0   290      9.4   863.0    0.00      16    48.4
 116    5:40   39.0    71    2.2   264      8.2   863.2    0.00      24    48.3
 116    5:50   39.6    70    2.2   295      6.3   863.4    0.00      31    48.2
 116    6:00   38.0    79    1.7    82      5.3   863.6    0.00      61    48.2
 116    6:10   37.5    83    0.9    66      2.6   863.7    0.00      47    48.1
 116    6:20   38.0    82    2.1    61      5.6   863.8    0.00      53    48.1
 116    6:30   39.3    79    1.4    32      3.9   863.8    0.00     158    48.1
 116    6:40   40.5    76    2.6    29      6.3   863.9    0.00     275    48.0
 116    6:50   42.0    73    2.0    68      7.0   864.0    0.00     300    48.0
 116    7:00   43.6    64    3.2   257      8.3   864.1    0.00     329    48.0
 116    7:10   44.8    58    7.5   261     14.6   864.0    0.00     359    48.0
 116    7:20   45.2    54    9.3   279     16.3   864.2    0.00     388    48.0
 116    7:30   45.2    53    9.5   273     16.1   864.3    0.00     389    48.0
 116    7:40   45.7    54    8.8   265     16.6   864.2    0.00     445    48.0
 116    7:50   46.4    52    8.8   262     13.7   864.2    0.00     489    48.1
 116    8:00   47.2    50    7.6   273     15.5   864.3    0.00     510    48.1
 116    8:10   47.5    48    9.3   284     16.8   864.3    0.00     527    48.2
 116    8:20   48.1    48    8.5   268     16.7   864.3    0.00     513    48.3
 116    8:30   48.4    46    7.4   259     15.4   864.3    0.00     507    48.4
 116    8:40   49.9    42    5.5   260     13.0   864.5    0.00     496    48.7
 116    8:50   49.5    39    5.5   282     12.7   864.4    0.00     163    48.9
 116    9:00   50.3    36    5.0   328     11.1   864.4    0.00     474    49.2
 116    9:10   51.7    32    4.7    38     11.8   864.4    0.00     508    49.4
 116    9:20   52.9    31    3.5    18     10.7   864.4    0.00     324    49.6
 116    9:30   53.5    27    7.3     9     16.9   864.4    0.00     393    49.8
 116    9:40   53.2    28    8.4   341     15.3   864.3    0.00     774    50.0
 116    9:50   53.7    27    7.0   327     13.7   864.4    0.00     737    50.2
 116   10:00   53.9    28    7.4   308     16.5   864.4    0.00     436    50.5
 116   10:10   52.3    30    7.2   308     15.3   864.4    0.00     378    50.7
 116   10:20   52.6    30    6.5   303     12.8   864.3    0.00     247    51.0
 116   10:30   52.9    28    4.8   344     11.0   864.4    0.00     277    51.3
 116   10:40   54.4    26    5.5   326     12.5   864.4    0.00     961    51.5
 116   10:50   55.6    25    5.8   303     12.3   864.2    0.00     721    51.8
 116   11:00   54.6    28    8.2   306     15.6   864.2    0.00     648    52.0
 116   11:10   54.0    27    8.5   289     20.7   864.3    0.00     415    52.3
 116   11:20   54.6    25    7.8   322     15.0   864.3    0.00     480    52.5
 116   11:30   54.8    26    8.4   308     23.5   864.4    0.00     553    52.7
 116   11:40   54.6    27    6.7   312     18.3   864.3    0.00     336    52.9
 116   11:50   54.9    26    6.6   344     14.5   864.3    0.00     320    53.2
 116   12:00   54.6    26    7.4   336     16.1   864.4    0.00     273    53.4
 116   12:10   54.6    26    6.1   356     13.0   864.6    0.00     254    53.6
 116   12:20   54.7    27    4.8   329     12.5   864.6    0.00     181    53.8
 116   12:30   54.8    26    7.2   341     11.5   864.7    0.00     441    54.0
 116   12:40   54.5    28    6.5    39     14.0   864.8    0.00     158    54.2
 116   12:50   54.4    30    5.5    34     13.9   864.7    0.00     186    54.4
 116   13:00   54.8    29    6.0     4     15.9   864.7    0.00     192    54.6
 116   13:10   54.4    30    6.6    64     14.9   864.9    0.00     206    54.8
 116   13:20   54.2    31    8.0    25     17.4   865.2    0.00     256    55.0
 116   13:30   54.1    32    6.8    20     15.3   865.3    0.00     290    55.1
 116   13:40   54.3    30    6.1   348     19.6   865.2    0.00     463    55.3
 116   13:50   56.1    27    5.8   358     13.1   865.0    0.00     507    55.6
 116   14:00   55.5    27    6.3   357     14.1   865.0    0.00     284    56.0
 116   14:10   55.9    27    5.1    22     11.3   865.0    0.00     531    56.4
 116   14:20   56.9    25    6.8   342     14.9   865.0    0.00     537    56.8
 116   14:30   56.6    25    6.0   326     11.6   865.0    0.00     255    57.3
 116   14:40   56.3    25    4.7    24     13.3   865.1    0.00     204    57.7
 116   14:50   56.9    24    6.4   329     13.4   865.0    0.00     401    58.0
 116   15:00   56.2    24    5.6   359     12.4   865.1    0.00     184    58.3
 116   15:10   57.0    23    8.1   331     16.7   865.0    0.00     637    58.5
 116   15:20   57.1    22    8.9   329     16.4   865.0    0.00     359    58.7
 116   15:30   57.1    23    7.8   351     18.3   865.1    0.00     275    59.0
 116   15:40   57.8    22    6.8   330     15.5   865.1    0.00     598    59.3
 116   15:50   58.1    21    7.1   327     20.5   865.1    0.00     217    59.6
 116   16:00   57.0    22    7.6   346     16.8   865.2    0.00     154    60.0
 116   16:10   56.8    21    8.0     6     17.7   865.2    0.00     220    60.2
 116   16:20   56.9    22    4.9   342     10.8   865.1    0.00     192    60.3
 116   16:30   57.0    22    6.0     0     12.6   865.2    0.00     134    60.4
 116   16:40   56.7    22    4.8     8     10.8   865.2    0.00     107    60.4
 116   16:50   56.7    22    6.4   348     13.2   865.2    0.00     217    60.4
 116   17:00   57.1    21    5.4    15     11.1   865.3    0.00     218    60.4
 116   17:10   57.4    21    5.7     3     13.1   865.3    0.00     209    60.5
 116   17:20   57.4    21    6.1    31     11.6   865.3    0.00     185    60.6
 116   17:30   57.0    22    6.7    15     13.5   865.4    0.00     152    60.7
 116   17:40   56.6    22    5.8    32     11.5   865.5    0.00     122    60.9
 116   17:50   56.2    22    5.8    20     11.0   865.5    0.00      82    61.1
 116   18:00   55.9    22    4.1    17      9.9   865.6    0.00      44    61.1
 116   18:10   55.5    23    2.5     1      6.4   865.8    0.00      12    61.1
 116   18:20   55.1    23    3.8   354      7.9   865.8    0.00       6    61.0
 116   18:30   54.9    22    4.9   314     10.4   865.9    0.00       3    60.8
 116   18:40   54.8    22    4.9   345     14.0   866.1    0.00       3    60.6
 116   18:50   54.4    22    5.5   326     14.0   866.2    0.00       0    60.4
 116   19:00   54.3    22    5.8   334     13.9   866.4    0.00       0    60.1
 116   19:10   54.0    22    5.3   349     10.8   866.5    0.00       0    59.8
 116   19:20   53.9    22    4.1   349     12.8   866.6    0.00       0    59.6
 116   19:30   53.8    22    5.5   341     14.7   866.7    0.00       0    59.3
 116   19:40   53.6    22    4.8   348      9.7   867.0    0.00       0    59.1
 116   19:50   53.4    23    3.4     1      8.9   867.2    0.00       0    58.9
 116   20:00   53.0    23    3.6    28     10.7   867.4    0.00       0    58.6
 116   20:10   51.9    26    2.8    88      7.7   867.5    0.00       0    58.4
 116   20:20   50.7    28    4.0    89     11.1   867.7    0.00       0    58.2
 116   20:30   49.9    30    3.5    53      6.4   868.0    0.00       0    58.0
 116   20:40   49.3    31    3.0    18      6.8   868.2    0.00       0    57.8
 116   20:50   48.8    32    2.7    25      6.1   868.3    0.00       0    57.7
 116   21:00   48.5    33    2.0    51      4.2   868.4    0.00       0    57.5
 116   21:10   47.4    36    1.5    84      3.0   868.5    0.00       0    57.3
 116   21:20   46.5    40    1.3    15      3.0   868.5    0.00       0    57.1
 116   21:30   45.6    41    1.1    91      2.2   868.6    0.00       0    56.9
 116   21:40   45.2    42    1.9    41      3.8   868.6    0.00       0    56.7
 116   21:50   45.2    42    2.0    69      5.6   868.7    0.00       0    56.5
 116   22:00   45.5    39    2.1    72      4.5   868.8    0.00       0    56.4
 116   22:10   44.8    42    2.4    65      5.6   868.8    0.00       0    56.2
 116   22:20   44.3    44    2.2    49      5.2   868.8    0.00       0    56.0
 116   22:30   44.0    43    2.8    12      4.7   869.0    0.00       0    55.8
 116   22:40   44.2    42    2.0   359      5.1   869.1    0.00       0    55.6
 116   22:50   43.4    45    0.6   301      1.6   869.2    0.00       0    55.4
 116   23:00   42.5    47    0.1   218      0.9   869.2    0.00       0    55.3
 116   23:10   42.0    48    0.1   189      1.4   869.3    0.00       0    55.1
 116   23:20   41.6    48    0.3   168      1.5   869.4    0.00       0    54.9

Return to Caliente, Nevada graphs page.


Western Regional Climate Center,wrcc@dri.edu